createdAt,value
2019-01-17T00:03:35.040Z,1.63
2019-01-17T00:08:36.976Z,1.53
2019-01-17T00:13:38.961Z,2.27
2019-01-17T00:18:40.702Z,1.73
2019-01-17T00:23:42.226Z,3.00
2019-01-17T00:28:43.753Z,3.00
2019-01-17T00:33:45.650Z,2.93
2019-01-17T00:38:47.252Z,2.13
2019-01-17T00:43:48.777Z,2.03
2019-01-17T00:48:50.368Z,6.37
2019-01-17T00:53:51.932Z,3.47
2019-01-17T00:58:53.457Z,7.53
2019-01-17T01:03:54.995Z,10.67
2019-01-17T01:08:56.933Z,8.53
2019-01-17T01:13:58.461Z,9.60
2019-01-17T01:18:59.960Z,6.87
2019-01-17T01:24:01.519Z,9.20
2019-01-17T01:29:03.056Z,9.60
2019-01-17T01:34:04.596Z,10.40
2019-01-17T01:39:06.830Z,12.47
2019-01-17T01:44:08.683Z,14.47
2019-01-17T01:49:10.266Z,12.30
2019-01-17T01:54:11.781Z,13.83
2019-01-17T01:59:13.325Z,11.23
2019-01-17T02:04:15.578Z,11.67
2019-01-17T02:09:17.090Z,11.07
2019-01-17T02:14:18.650Z,10.53
2019-01-17T02:19:20.191Z,6.27
2019-01-17T02:24:28.363Z,10.57
2019-01-17T02:29:25.524Z,9.53
2019-01-17T02:34:27.059Z,12.17
2019-01-17T02:39:28.611Z,7.90
2019-01-17T02:44:30.154Z,6.93
2019-01-17T02:49:31.691Z,10.37
2019-01-17T02:54:35.794Z,11.43
2019-01-17T02:59:36.659Z,8.93
2019-01-17T03:04:38.173Z,14.30
2019-01-17T03:09:40.083Z,12.43
2019-01-17T03:14:41.623Z,16.00
2019-01-17T03:19:43.208Z,13.33
2019-01-17T03:24:44.817Z,16.13
2019-01-17T03:29:46.404Z,18.63
2019-01-17T03:34:48.243Z,18.90
2019-01-17T03:39:49.800Z,18.83
2019-01-17T03:44:51.344Z,18.47
2019-01-17T03:49:52.871Z,20.60
2019-01-17T03:54:54.405Z,23.20
2019-01-17T03:59:55.934Z,25.57
2019-01-17T04:04:57.459Z,28.17
2019-01-17T04:09:59.337Z,32.80
2019-01-17T04:15:01.326Z,28.47
2019-01-17T04:20:03.677Z,27.50
2019-01-17T04:25:05.729Z,36.60
2019-01-17T04:30:15.066Z,35.90
2019-01-17T04:35:16.619Z,37.13
2019-01-17T04:40:18.225Z,34.67
2019-01-17T04:45:19.859Z,36.93
2019-01-17T04:50:21.369Z,32.80
2019-01-17T04:55:22.962Z,36.30
2019-01-17T05:00:24.517Z,41.70
2019-01-17T05:05:26.505Z,36.90
2019-01-17T05:10:28.079Z,35.97
2019-01-17T05:15:29.627Z,38.70
2019-01-17T05:20:31.146Z,40.67
2019-01-17T05:25:32.731Z,37.50
2019-01-17T05:30:34.308Z,45.47
2019-01-17T05:35:35.866Z,42.73
2019-01-17T05:40:38.684Z,42.27
2019-01-17T05:45:40.472Z,47.67
2019-01-17T05:50:41.996Z,47.63
2019-01-17T05:55:43.550Z,46.27
2019-01-17T06:00:45.099Z,47.83
2019-01-17T06:05:46.759Z,46.93
2019-01-17T06:10:48.627Z,48.57
2019-01-17T06:15:50.172Z,60.60
2019-01-17T06:20:51.733Z,51.63
2019-01-17T06:25:53.293Z,46.33
2019-01-17T06:30:54.831Z,59.33
2019-01-17T06:35:56.564Z,44.93
2019-01-17T06:40:58.279Z,56.53
2019-01-17T06:46:00.194Z,50.73
2019-01-17T06:51:01.755Z,53.90
2019-01-17T06:56:03.292Z,52.93
2019-01-17T07:01:04.876Z,54.43
2019-01-17T07:06:06.422Z,45.17
2019-01-17T07:11:08.010Z,49.30
2019-01-17T07:16:09.832Z,51.07
2019-01-17T07:21:11.742Z,45.07
2019-01-17T07:26:13.268Z,44.40
2019-01-17T07:31:14.895Z,42.40
2019-01-17T07:36:17.807Z,43.40
2019-01-17T07:41:19.363Z,47.40
2019-01-17T07:46:21.195Z,47.70
2019-01-17T07:51:22.754Z,49.03
2019-01-17T07:56:24.607Z,55.00
2019-01-17T08:01:26.201Z,54.47
2019-01-17T08:06:27.804Z,46.17
2019-01-17T08:11:29.322Z,40.40
2019-01-17T08:16:31.285Z,29.47
2019-01-17T08:21:32.884Z,25.60
2019-01-17T08:26:34.770Z,31.40
2019-01-17T08:31:36.367Z,19.97
2019-01-17T08:36:37.923Z,12.03
2019-01-17T08:41:39.526Z,4.63
2019-01-17T08:46:41.209Z,7.60
2019-01-17T08:51:42.859Z,6.70
2019-01-17T08:56:44.442Z,6.60
2019-01-17T09:01:46.008Z,4.37
2019-01-17T09:06:48.015Z,4.03
2019-01-17T09:11:49.614Z,3.40
2019-01-17T09:16:51.148Z,2.47
2019-01-17T09:21:52.698Z,6.20
2019-01-17T09:26:54.446Z,4.77
2019-01-17T09:31:55.965Z,3.30
2019-01-17T09:36:57.502Z,1.13
2019-01-17T09:41:59.046Z,1.67
2019-01-17T09:47:00.560Z,3.13
2019-01-17T09:52:02.436Z,2.07
2019-01-17T09:57:04.405Z,2.97
2019-01-17T10:02:05.905Z,2.70
2019-01-17T10:07:07.544Z,3.00
2019-01-17T10:12:09.098Z,2.70
2019-01-17T10:17:34.372Z,2.27
2019-01-17T10:23:20.466Z,6.83
2019-01-17T10:28:57.243Z,6.00
2019-01-17T10:34:34.417Z,5.97
2019-01-17T10:40:11.693Z,2.80
2019-01-17T10:46:16.196Z,3.93
2019-01-17T10:51:41.879Z,7.90
2019-01-17T10:56:57.661Z,8.07
2019-01-17T11:02:39.766Z,8.90
2019-01-17T11:08:05.112Z,7.50
2019-01-17T11:13:50.459Z,5.93
2019-01-17T11:19:08.223Z,11.73
2019-01-17T11:24:36.139Z,6.63
2019-01-17T11:30:19.413Z,6.63
2019-01-17T11:36:14.719Z,9.87
2019-01-17T11:41:40.332Z,5.27
2019-01-17T11:47:29.866Z,6.37
2019-01-17T11:53:07.075Z,7.47
2019-01-17T11:58:40.603Z,8.93
2019-01-17T12:04:28.717Z,5.63
2019-01-17T12:09:30.294Z,10.37
2019-01-17T12:14:32.295Z,5.63
2019-01-17T12:19:33.839Z,8.13
2019-01-17T12:24:35.835Z,7.53
2019-01-17T12:29:37.365Z,12.00
2019-01-17T12:34:38.867Z,12.53
2019-01-17T12:39:40.420Z,16.17
2019-01-17T12:44:42.153Z,10.27
2019-01-17T12:49:44.005Z,17.17
2019-01-17T12:54:45.526Z,11.50
2019-01-17T12:59:47.078Z,10.93
2019-01-17T13:04:48.651Z,17.57
2019-01-17T13:09:50.305Z,16.93
2019-01-17T13:14:51.806Z,11.70
2019-01-17T13:19:53.343Z,12.70
2019-01-17T13:24:54.903Z,8.73
2019-01-17T13:29:57.756Z,10.33
2019-01-17T13:34:59.305Z,9.47
2019-01-17T13:40:00.888Z,13.70
2019-01-17T13:45:02.699Z,7.03
2019-01-17T13:50:04.295Z,8.87
2019-01-17T13:55:05.918Z,1.93
2019-01-17T14:00:11.933Z,3.80
2019-01-17T14:05:13.538Z,11.30
2019-01-17T14:10:15.197Z,7.90
2019-01-17T14:15:19.148Z,7.07
2019-01-17T14:20:20.690Z,6.07
2019-01-17T14:25:22.366Z,9.60
2019-01-17T14:30:25.698Z,8.27
2019-01-17T14:35:27.299Z,6.70
2019-01-17T14:40:29.269Z,7.10
2019-01-17T14:45:30.799Z,6.67
2019-01-17T14:50:32.353Z,7.90
2019-01-17T14:55:34.016Z,6.30
2019-01-17T15:00:35.597Z,5.43
2019-01-17T15:05:37.133Z,5.47
2019-01-17T15:10:39.637Z,3.33
2019-01-17T15:15:41.241Z,2.13
2019-01-17T15:20:42.811Z,2.10
2019-01-17T15:25:44.475Z,4.13
2019-01-17T15:30:46.007Z,1.47
2019-01-17T15:35:47.872Z,1.00
2019-01-17T15:40:49.434Z,1.20
2019-01-17T15:45:50.982Z,1.00
2019-01-17T15:50:53.005Z,5.00
2019-01-17T15:55:54.938Z,2.00
2019-01-17T16:00:56.443Z,2.87
2019-01-17T16:05:58.008Z,3.50
2019-01-17T16:10:59.682Z,5.20
2019-01-17T16:16:01.235Z,4.28
2019-01-17T16:21:02.791Z,5.57
2019-01-17T16:26:04.347Z,4.77
2019-01-17T16:31:05.941Z,5.47
2019-01-17T16:36:07.826Z,4.57
2019-01-17T16:41:09.375Z,5.50
2019-01-17T16:46:10.960Z,8.53
2019-01-17T16:51:12.531Z,5.00
2019-01-17T16:56:14.377Z,5.27
2019-01-17T17:01:16.407Z,5.33
2019-01-17T17:06:17.955Z,6.13
2019-01-17T17:11:19.515Z,5.90
2019-01-17T17:16:21.097Z,8.43
2019-01-17T17:21:22.689Z,9.07
2019-01-17T17:26:24.293Z,6.43
2019-01-17T17:31:25.838Z,7.37
2019-01-17T17:36:27.407Z,11.77
2019-01-17T17:41:29.016Z,6.93
2019-01-17T17:46:30.730Z,10.43
2019-01-17T17:51:32.395Z,10.07
2019-01-17T17:56:33.983Z,8.00
2019-01-17T18:01:35.640Z,11.37
2019-01-17T18:06:37.290Z,8.53
2019-01-17T18:11:38.917Z,5.57
2019-01-17T18:16:40.561Z,9.47
2019-01-17T18:21:42.260Z,12.73
2019-01-17T18:26:44.725Z,11.40
2019-01-17T18:31:46.682Z,4.53
2019-01-17T18:36:48.297Z,9.13
2019-01-17T18:41:51.273Z,14.73
2019-01-17T18:46:53.019Z,12.33
2019-01-17T18:51:54.610Z,7.70
2019-01-17T18:56:56.680Z,11.00
2019-01-17T19:01:59.131Z,12.57
2019-01-17T19:07:00.865Z,12.43
2019-01-17T19:12:02.516Z,12.23
2019-01-17T19:17:05.200Z,5.23
2019-01-17T19:22:06.763Z,4.37
2019-01-17T19:27:09.039Z,8.17
2019-01-17T19:32:10.740Z,9.33
2019-01-17T19:37:12.285Z,6.50
2019-01-17T19:42:14.558Z,8.40
2019-01-17T19:47:16.401Z,4.07
2019-01-17T19:52:18.414Z,5.90
2019-01-17T19:57:20.723Z,10.23
2019-01-17T20:02:22.678Z,9.33
2019-01-17T20:07:24.257Z,7.20
2019-01-17T20:12:26.232Z,17.67
2019-01-17T20:17:28.086Z,7.43
2019-01-17T20:22:29.763Z,8.73
2019-01-17T20:27:31.702Z,11.03
2019-01-17T20:32:33.487Z,9.63
2019-01-17T20:37:35.031Z,7.77
2019-01-17T20:42:36.745Z,11.03
2019-01-17T20:47:40.886Z,14.73
2019-01-17T20:52:42.482Z,9.60
2019-01-17T20:57:44.064Z,15.90
2019-01-17T21:02:46.002Z,9.97
2019-01-17T21:07:47.627Z,14.37
2019-01-17T21:12:49.246Z,16.80
2019-01-17T21:17:50.801Z,11.60
2019-01-17T21:22:52.816Z,7.90
2019-01-17T21:27:54.530Z,12.97
2019-01-17T21:32:56.567Z,11.90
2019-01-17T21:37:58.550Z,10.57
2019-01-17T21:43:00.180Z,7.00
2019-01-17T21:48:02.996Z,10.43
2019-01-17T21:53:04.910Z,5.60
2019-01-17T21:58:06.797Z,11.17
2019-01-17T22:03:11.391Z,6.93
2019-01-17T22:08:12.939Z,3.37
2019-01-17T22:13:14.970Z,8.43
2019-01-17T22:18:16.589Z,9.47
2019-01-17T22:23:18.221Z,4.53
2019-01-17T22:28:19.946Z,10.30
2019-01-17T22:33:21.868Z,7.37
2019-01-17T22:38:23.610Z,11.73
2019-01-17T22:43:26.479Z,6.77
2019-01-17T22:48:28.528Z,9.30
2019-01-17T22:53:30.828Z,7.23
2019-01-17T22:58:32.771Z,8.47
2019-01-17T23:03:39.550Z,10.27
2019-01-17T23:08:41.207Z,7.53
2019-01-17T23:13:42.777Z,5.87
2019-01-17T23:18:44.712Z,10.57
2019-01-17T23:23:46.746Z,10.23
2019-01-17T23:28:48.295Z,7.87
2019-01-17T23:33:49.817Z,9.97
2019-01-17T23:38:51.788Z,10.03
2019-01-17T23:43:54.021Z,8.93
2019-01-17T23:48:55.837Z,13.77
2019-01-17T23:53:57.699Z,9.80
2019-01-17T23:58:59.220Z,14.40
